Time;durP1;ratioP1;P1;durP2;ratioP2;P2;SDS_P1;SDS_P2;PMS_P1;PMS_P2;Temp;Humidity;BMP_temperature;BMP_pressure;BME280_temperature;BME280_humidity;BME280_pressure;Samples;Min_cycle;Max_cycle;Signal;HPM_P1;HPM_P2
2023/09/12 00:01:43;;;;;;;41.80;33.10;;;19.40;92.10;;;;;;4925223;29;20496;-80
2023/09/12 00:04:11;;;;;;;48.03;35.75;;;19.40;92.10;;;;;;4957159;28;20047;-81
2023/09/12 00:06:37;;;;;;;44.22;33.63;;;19.40;92.10;;;;;;4956955;28;20043;-79
2023/09/12 00:09:05;;;;;;;44.15;33.90;;;19.30;91.90;;;;;;4941336;29;20042;-80
2023/09/12 00:11:31;;;;;;;42.70;33.50;;;19.30;91.90;;;;;;4941177;29;20053;-79
2023/09/12 00:13:59;;;;;;;45.70;34.50;;;19.30;91.70;;;;;;4956595;28;20126;-81
2023/09/12 00:16:24;;;;;;;43.55;34.67;;;19.30;91.70;;;;;;4940621;29;20059;-82
2023/09/12 00:18:50;;;;;;;43.47;33.60;;;19.30;91.80;;;;;;4940724;29;20049;-79
2023/09/12 00:21:16;;;;;;;46.20;33.97;;;19.30;91.80;;;;;;4956625;29;20124;-81
2023/09/12 00:23:42;;;;;;;40.08;33.08;;;19.30;91.90;;;;;;4940663;29;20043;-79
2023/09/12 00:26:07;;;;;;;41.72;34.00;;;19.30;92.00;;;;;;4956461;29;20237;-80
2023/09/12 00:28:34;;;;;;;46.92;35.50;;;19.30;92.00;;;;;;4940606;29;20046;-81
2023/09/12 00:30:59;;;;;;;45.58;34.95;;;19.30;92.00;;;;;;4940229;28;20451;-79
2023/09/12 00:33:25;;;;;;;47.85;35.20;;;19.30;92.10;;;;;;4940479;28;20043;-80
2023/09/12 00:35:51;;;;;;;43.50;34.90;;;19.20;92.20;;;;;;4940453;29;20046;-80
2023/09/12 00:38:16;;;;;;;47.28;35.67;;;19.20;92.30;;;;;;4956293;28;20043;-79
2023/09/12 00:40:42;;;;;;;48.55;35.15;;;19.20;92.30;;;;;;4955859;28;20055;-78
2023/09/12 00:43:08;;;;;;;46.80;35.33;;;19.20;92.40;;;;;;4956099;28;20079;-79
2023/09/12 00:45:33;;;;;;;45.08;34.22;;;19.10;92.60;;;;;;4956474;28;20058;-79
2023/09/12 00:48:03;;;;;;;46.35;35.65;;;19.10;92.50;;;;;;4956215;29;20522;-81
2023/09/12 00:50:30;;;;;;;41.63;34.78;;;19.10;92.40;;;;;;4940166;29;20450;-78
2023/09/12 00:52:56;;;;;;;42.33;33.47;;;19.10;92.40;;;;;;4955968;29;20040;-79
2023/09/12 00:55:22;;;;;;;47.60;35.90;;;19.10;92.40;;;;;;4924252;29;20310;-80
2023/09/12 00:57:49;;;;;;;44.60;34.17;;;19.10;92.40;;;;;;4956213;29;20043;-79
2023/09/12 01:00:15;;;;;;;47.95;34.47;;;19.10;92.50;;;;;;4956212;28;20043;-79
2023/09/12 01:02:43;;;;;;;54.90;36.58;;;19.10;92.50;;;;;;4939936;29;20039;-79
2023/09/12 01:05:11;;;;;;;48.70;36.67;;;19.10;92.60;;;;;;4939985;29;20043;-79
2023/09/12 01:07:37;;;;;;;48.63;36.85;;;19.20;92.60;;;;;;4940173;29;20058;-78
2023/09/12 01:10:07;;;;;;;43.45;35.40;;;19.20;92.80;;;;;;4939689;29;20043;-79
2023/09/12 01:12:33;;;;;;;47.10;36.63;;;19.20;92.60;;;;;;4939621;28;20042;-79
2023/09/12 01:14:59;;;;;;;39.78;32.60;;;19.10;92.60;;;;;;4956215;28;20043;-78
2023/09/12 01:17:26;;;;;;;50.60;36.08;;;19.10;92.60;;;;;;4958833;28;20046;-78
2023/09/12 01:19:52;;;;;;;43.15;34.97;;;19.10;92.70;;;;;;4958799;28;20046;-79
2023/09/12 01:22:26;;;;;;;48.40;36.10;;;19.10;92.70;;;;;;4958818;28;20537;-80
2023/09/12 01:25:12;;;;;;;43.63;34.50;;;19.00;92.70;;;;;;4958671;28;20058;-79
2023/09/12 01:27:45;;;;;;;47.03;33.40;;;19.00;92.70;;;;;;4958743;28;20062;-78
2023/09/12 01:30:10;;;;;;;49.53;37.15;;;19.00;92.70;;;;;;4958819;28;20125;-81
2023/09/12 01:32:38;;;;;;;52.25;38.08;;;19.00;92.70;;;;;;4942582;28;20494;-78
2023/09/12 01:35:05;;;;;;;54.72;39.05;;;19.00;92.70;;;;;;4958433;28;20050;-78
2023/09/12 01:37:31;;;;;;;51.88;37.15;;;19.00;92.70;;;;;;4958332;28;20077;-80
2023/09/12 01:39:57;;;;;;;51.85;39.25;;;18.90;92.70;;;;;;4958637;28;20089;-79
2023/09/12 01:42:24;;;;;;;57.65;40.17;;;18.90;92.80;;;;;;4942475;28;20090;-79
2023/09/12 01:44:54;;;;;;;54.47;40.92;;;18.90;92.80;;;;;;4942839;28;20042;-78
2023/09/12 01:47:22;;;;;;;51.80;39.78;;;18.90;92.90;;;;;;4942497;28;20125;-80
2023/09/12 01:49:52;;;;;;;53.75;39.70;;;18.80;92.90;;;;;;4958358;28;20039;-80
2023/09/12 01:52:19;;;;;;;55.08;39.97;;;18.80;93.10;;;;;;4957371;28;20407;-80
2023/09/12 01:54:46;;;;;;;52.95;39.83;;;18.80;93.10;;;;;;4942261;28;20121;-78
2023/09/12 01:57:13;;;;;;;55.72;39.67;;;18.70;93.10;;;;;;4958361;28;20506;-80
2023/09/12 01:59:39;;;;;;;46.63;36.95;;;18.70;93.10;;;;;;4958045;28;20093;-81
2023/09/12 02:02:05;;;;;;;57.75;40.78;;;18.60;93.30;;;;;;4942261;28;20047;-78
2023/09/12 02:04:30;;;;;;;56.45;38.72;;;18.60;93.40;;;;;;4926076;28;20050;-80
2023/09/12 02:06:58;;;;;;;44.67;34.80;;;18.50;93.40;;;;;;4926067;28;20043;-79
2023/09/12 02:09:24;;;;;;;58.22;40.17;;;18.50;93.40;;;;;;4942301;28;20054;-78
2023/09/12 02:11:51;;;;;;;48.17;37.28;;;18.50;93.50;;;;;;4958125;28;20065;-80
2023/09/12 02:14:18;;;;;;;52.58;39.38;;;18.50;93.60;;;;;;4941979;28;20122;-80
2023/09/12 02:16:44;;;;;;;48.45;36.97;;;18.50;93.50;;;;;;4923048;29;20412;-79
2023/09/12 02:19:10;;;;;;;49.78;35.03;;;18.50;93.60;;;;;;4954748;29;20039;-80
2023/09/12 02:21:35;;;;;;;48.90;35.97;;;18.40;93.70;;;;;;4938552;28;20619;-78
2023/09/12 02:24:01;;;;;;;51.95;37.20;;;18.40;93.70;;;;;;4922625;29;20051;-78
2023/09/12 02:26:27;;;;;;;47.95;36.33;;;18.40;93.90;;;;;;4938373;29;20131;-79
2023/09/12 02:28:53;;;;;;;50.75;37.85;;;18.30;93.90;;;;;;4954321;29;20051;-79
2023/09/12 02:31:18;;;;;;;57.75;38.55;;;18.30;93.80;;;;;;4954235;29;20055;-79
2023/09/12 02:33:44;;;;;;;65.97;35.63;;;18.30;93.80;;;;;;4948601;28;20142;-81
2023/09/12 02:36:10;;;;;;;38.13;29.42;;;18.30;93.90;;;;;;4941565;28;20554;-78
2023/09/12 02:38:36;;;;;;;42.65;33.53;;;18.20;93.90;;;;;;4973647;28;20089;-80
2023/09/12 02:41:02;;;;;;;65.00;37.80;;;18.20;93.90;;;;;;4973158;28;20050;-79
2023/09/12 02:43:28;;;;;;;54.47;36.08;;;18.20;94.10;;;;;;4973705;28;20387;-78
2023/09/12 02:45:54;;;;;;;43.30;33.10;;;18.10;94.10;;;;;;4957416;28;20165;-79
2023/09/12 02:48:20;;;;;;;34.03;29.25;;;18.10;94.10;;;;;;4941615;28;20133;-78
2023/09/12 02:50:45;;;;;;;37.28;29.80;;;18.10;94.10;;;;;;4957098;28;20411;-79
2023/09/12 02:53:11;;;;;;;50.17;33.40;;;18.10;94.00;;;;;;4973456;28;20046;-78
2023/09/12 02:55:41;;;;;;;31.38;26.27;;;18.10;93.90;;;;;;4941254;28;20521;-79
2023/09/12 02:58:07;;;;;;;44.28;33.28;;;18.10;93.90;;;;;;4973175;28;20133;-78
2023/09/12 03:00:38;;;;;;;51.42;35.05;;;18.10;93.80;;;;;;4957361;28;20210;-79
2023/09/12 03:03:04;;;;;;;36.95;29.83;;;18.00;93.80;;;;;;4973080;28;20047;-80
2023/09/12 03:05:29;;;;;;;42.00;32.40;;;18.00;93.80;;;;;;4956811;28;20049;-79
2023/09/12 03:07:55;;;;;;;38.17;30.20;;;18.00;93.80;;;;;;4973090;28;20130;-80
2023/09/12 03:10:21;;;;;;;45.97;32.28;;;18.00;93.80;;;;;;4972962;28;20076;-78
2023/09/12 03:12:46;;;;;;;40.60;30.70;;;18.00;93.70;;;;;;4940972;28;20042;-80
2023/09/12 03:15:12;;;;;;;29.83;26.58;;;18.00;93.80;;;;;;4959310;28;20062;-79
2023/09/12 03:17:38;;;;;;;46.53;34.00;;;18.00;93.90;;;;;;4960135;28;20477;-78
2023/09/12 03:20:08;;;;;;;84.68;34.00;;;17.90;94.00;;;;;;4944116;28;20046;-80
2023/09/12 03:22:37;;;;;;;63.30;31.90;;;17.90;93.90;;;;;;4960845;28;20058;-79
2023/09/12 03:25:06;;;;;;;38.53;26.50;;;17.80;94.00;;;;;;4944684;28;20431;-79
2023/09/12 03:27:32;;;;;;;183.10;32.97;;;17.80;93.90;;;;;;4960018;28;20049;-78
2023/09/12 03:29:58;;;;;;;194.35;29.08;;;17.70;94.00;;;;;;4960246;28;20422;-78
2023/09/12 03:32:24;;;;;;;315.95;36.35;;;17.70;94.20;;;;;;4960164;28;20046;-79
2023/09/12 03:34:50;;;;;;;186.57;32.08;;;17.60;94.30;;;;;;4959935;28;20045;-79
2023/09/12 03:37:15;;;;;;;222.95;36.08;;;17.60;94.30;;;;;;4975858;28;20050;-78
2023/09/12 03:39:41;;;;;;;36.88;16.88;;;17.60;94.40;;;;;;4976238;28;20125;-79
2023/09/12 03:42:07;;;;;;;208.50;30.58;;;17.60;94.30;;;;;;4959956;28;20096;-78
2023/09/12 03:44:32;;;;;;;495.80;53.17;;;17.60;94.30;;;;;;4976085;28;20395;-78
2023/09/12 03:46:58;;;;;;;105.03;29.75;;;17.50;94.40;;;;;;4975857;28;20045;-78
2023/09/12 03:49:24;;;;;;;177.57;32.33;;;17.50;94.50;;;;;;4976088;28;20254;-78
2023/09/12 03:51:50;;;;;;;71.55;27.05;;;17.50;94.60;;;;;;4975902;28;20053;-78
2023/09/12 03:54:15;;;;;;;214.02;34.83;;;17.50;94.50;;;;;;4976075;28;20053;-78
2023/09/12 03:56:41;;;;;;;166.15;32.50;;;17.50;94.60;;;;;;4959754;28;20406;-79
2023/09/12 03:59:07;;;;;;;147.55;36.20;;;17.60;94.80;;;;;;4959793;28;20129;-79
2023/09/12 04:01:32;;;;;;;144.88;35.25;;;17.60;94.70;;;;;;4959763;28;20484;-78
2023/09/12 04:03:58;;;;;;;100.63;36.38;;;17.60;94.80;;;;;;4975645;28;20061;-81
2023/09/12 04:06:24;;;;;;;224.52;41.45;;;17.60;94.80;;;;;;4975820;28;20125;-80
2023/09/12 04:08:49;;;;;;;219.25;44.40;;;17.70;94.90;;;;;;4959666;28;20078;-78
2023/09/12 04:11:15;;;;;;;132.35;40.28;;;17.70;94.90;;;;;;4927787;28;20097;-78
2023/09/12 04:13:41;;;;;;;215.80;50.42;;;17.60;94.80;;;;;;4975717;28;20482;-78
2023/09/12 04:16:07;;;;;;;76.28;38.47;;;17.70;95.00;;;;;;4960640;28;20418;-77
2023/09/12 04:18:33;;;;;;;136.63;50.67;;;17.70;95.00;;;;;;4979154;28;20050;-76
2023/09/12 04:20:59;;;;;;;147.07;46.90;;;17.70;95.30;;;;;;4963017;28;20043;-76
2023/09/12 04:23:25;;;;;;;171.43;54.17;;;17.70;95.20;;;;;;4979002;28;20077;-75
2023/09/12 04:25:51;;;;;;;69.85;36.42;;;17.70;95.40;;;;;;4962788;28;20073;-75
2023/09/12 04:28:17;;;;;;;150.35;48.50;;;17.60;95.20;;;;;;4963215;28;20081;-75
2023/09/12 04:30:42;;;;;;;81.15;43.17;;;17.60;95.20;;;;;;4978731;28;20034;-77
2023/09/12 04:33:08;;;;;;;125.28;49.92;;;17.60;95.20;;;;;;4977205;28;20042;-74
2023/09/12 04:35:35;;;;;;;79.38;48.70;;;17.50;95.30;;;;;;4977217;28;20038;-75
2023/09/12 04:38:00;;;;;;;76.50;48.25;;;17.50;95.40;;;;;;4977582;28;20168;-76
2023/09/12 04:40:26;;;;;;;116.13;58.92;;;17.50;95.60;;;;;;4977803;28;20122;-75
2023/09/12 04:42:53;;;;;;;119.65;60.05;;;17.50;95.80;;;;;;4979048;28;20100;-75
2023/09/12 04:45:18;;;;;;;120.22;59.33;;;17.50;95.60;;;;;;4978566;28;20140;-75
2023/09/12 04:47:44;;;;;;;97.00;55.92;;;17.50;95.80;;;;;;4978708;28;20085;-75
2023/09/12 04:50:11;;;;;;;79.45;42.05;;;17.50;95.80;;;;;;4978681;28;20049;-77
2023/09/12 04:52:37;;;;;;;210.18;62.08;;;17.50;95.70;;;;;;4962122;28;20042;-78
2023/09/12 04:55:04;;;;;;;126.75;51.53;;;17.50;95.70;;;;;;4978323;28;20042;-78
2023/09/12 04:57:30;;;;;;;112.28;43.72;;;17.50;95.70;;;;;;4978284;28;20043;-78
2023/09/12 05:00:00;;;;;;;341.98;54.05;;;17.50;95.80;;;;;;4978394;28;20050;-78
2023/09/12 05:02:26;;;;;;;252.88;53.38;;;17.50;96.00;;;;;;4978526;28;20046;-78
2023/09/12 05:04:52;;;;;;;253.93;54.65;;;17.40;96.10;;;;;;4978338;28;20376;-78
2023/09/12 05:07:18;;;;;;;165.43;49.25;;;17.40;96.30;;;;;;4961921;28;20042;-77
2023/09/12 05:09:43;;;;;;;191.43;53.85;;;17.40;96.30;;;;;;4961902;28;20046;-78
2023/09/12 05:12:09;;;;;;;168.48;47.80;;;17.40;96.30;;;;;;4961876;28;20038;-77
2023/09/12 05:14:35;;;;;;;118.68;48.47;;;17.40;96.00;;;;;;4961452;28;20448;-78
2023/09/12 05:17:01;;;;;;;170.18;57.15;;;17.40;96.10;;;;;;4961706;28;20046;-78
2023/09/12 05:19:29;;;;;;;141.77;49.58;;;17.40;96.10;;;;;;4978198;28;20077;-78
2023/09/12 05:21:55;;;;;;;122.45;45.97;;;17.40;96.00;;;;;;4977940;28;20097;-77
2023/09/12 05:24:21;;;;;;;100.90;43.22;;;17.50;95.80;;;;;;4977961;28;20038;-75
2023/09/12 05:26:49;;;;;;;170.05;50.42;;;17.40;96.10;;;;;;4977752;28;20077;-76
2023/09/12 05:29:14;;;;;;;108.95;42.47;;;17.40;96.00;;;;;;4977863;28;20073;-76
2023/09/12 05:31:40;;;;;;;108.85;41.00;;;17.40;96.10;;;;;;4977685;28;20078;-77
2023/09/12 05:34:06;;;;;;;99.30;38.25;;;17.40;96.10;;;;;;4976696;28;20081;-77
2023/09/12 05:36:31;;;;;;;82.68;42.25;;;17.30;96.10;;;;;;4917276;28;20042;-76
2023/09/12 05:38:57;;;;;;;99.20;44.00;;;17.30;96.00;;;;;;4954392;28;20050;-77
2023/09/12 05:41:23;;;;;;;258.58;51.03;;;17.40;96.00;;;;;;4961899;28;20038;-76
2023/09/12 05:43:49;;;;;;;225.10;45.03;;;17.30;96.10;;;;;;4958156;28;20054;-76
2023/09/12 05:46:14;;;;;;;177.93;44.90;;;17.30;96.20;;;;;;4938561;28;20072;-76
2023/09/12 05:48:40;;;;;;;352.83;62.95;;;17.30;96.10;;;;;;4946270;28;20153;-77
2023/09/12 05:51:06;;;;;;;173.38;41.35;;;17.20;96.20;;;;;;4944921;28;20050;-77
2023/09/12 05:53:31;;;;;;;249.00;50.72;;;17.30;96.30;;;;;;4942996;28;20109;-76
2023/09/12 05:55:57;;;;;;;361.60;58.55;;;17.30;96.30;;;;;;4914504;28;20050;-76
2023/09/12 05:58:23;;;;;;;215.27;51.03;;;17.30;96.40;;;;;;4957579;28;20664;-76
2023/09/12 06:00:48;;;;;;;158.23;40.22;;;17.30;96.50;;;;;;4958779;28;20038;-77
2023/09/12 06:03:15;;;;;;;214.80;51.20;;;17.30;96.40;;;;;;4958248;28;20081;-76
2023/09/12 06:05:41;;;;;;;289.65;57.58;;;17.40;96.60;;;;;;4958178;28;20082;-77
2023/09/12 06:08:07;;;;;;;210.80;50.13;;;17.40;96.60;;;;;;4944982;28;20083;-78
2023/09/12 06:10:33;;;;;;;97.80;41.42;;;17.40;96.50;;;;;;4958797;28;20081;-77
2023/09/12 06:12:59;;;;;;;210.93;55.08;;;17.50;96.40;;;;;;4940784;28;20046;-76
2023/09/12 06:15:25;;;;;;;95.55;45.47;;;17.50;96.50;;;;;;4941310;28;20383;-78
2023/09/12 06:17:51;;;;;;;63.13;40.53;;;17.50;96.60;;;;;;4962260;28;20478;-77
2023/09/12 06:20:16;;;;;;;80.60;43.63;;;17.50;96.50;;;;;;4946355;28;20046;-78
2023/09/12 06:22:43;;;;;;;73.22;44.05;;;17.60;96.60;;;;;;4945941;28;20133;-76
2023/09/12 06:25:09;;;;;;;58.58;40.25;;;17.60;96.70;;;;;;4945170;28;20085;-75
2023/09/12 06:27:34;;;;;;;49.28;35.97;;;17.70;96.60;;;;;;4962547;28;20085;-75
2023/09/12 06:30:00;;;;;;;68.90;42.95;;;17.70;96.60;;;;;;4958361;28;20049;-76
2023/09/12 06:32:26;;;;;;;83.68;49.10;;;17.80;96.50;;;;;;4958545;28;20074;-77
2023/09/12 06:34:51;;;;;;;100.53;52.85;;;17.90;96.80;;;;;;4955574;28;20043;-77
2023/09/12 06:37:18;;;;;;;57.33;39.47;;;17.90;96.70;;;;;;4957711;28;20037;-77
2023/09/12 06:39:44;;;;;;;80.10;49.85;;;18.00;96.60;;;;;;4963416;28;20053;-77
2023/09/12 06:42:09;;;;;;;87.57;51.53;;;18.10;96.80;;;;;;4933212;28;20042;-77
2023/09/12 06:44:35;;;;;;;88.50;51.80;;;18.10;96.60;;;;;;4925896;28;20042;-77
2023/09/12 06:47:04;;;;;;;101.50;56.28;;;18.20;96.80;;;;;;4944134;28;20076;-77
2023/09/12 06:49:32;;;;;;;106.22;57.42;;;18.30;96.80;;;;;;4958986;28;20046;-76
2023/09/12 06:51:57;;;;;;;101.78;57.33;;;18.40;96.50;;;;;;4944401;28;20097;-77
2023/09/12 06:54:23;;;;;;;98.75;55.50;;;18.40;96.70;;;;;;4962708;28;20042;-77
2023/09/12 06:56:49;;;;;;;99.93;58.47;;;18.40;96.70;;;;;;4944733;28;20050;-76
2023/09/12 06:59:14;;;;;;;88.97;53.25;;;18.50;96.80;;;;;;4967633;28;20101;-78
2023/09/12 07:01:40;;;;;;;101.93;55.92;;;18.50;97.00;;;;;;4944075;28;20051;-77
2023/09/12 07:04:06;;;;;;;87.15;53.33;;;18.60;96.60;;;;;;4963436;28;20050;-76
2023/09/12 07:06:32;;;;;;;100.70;56.60;;;18.60;96.80;;;;;;4964875;28;20050;-76
2023/09/12 07:08:58;;;;;;;92.03;54.80;;;18.60;96.60;;;;;;4966640;28;20089;-76
2023/09/12 07:11:24;;;;;;;86.43;52.60;;;18.70;96.70;;;;;;4966095;28;20096;-77
2023/09/12 07:13:49;;;;;;;92.10;54.40;;;18.70;96.70;;;;;;4930600;28;20118;-76
2023/09/12 07:16:15;;;;;;;86.15;52.28;;;18.80;96.90;;;;;;4960010;28;20149;-77
2023/09/12 07:18:41;;;;;;;88.22;52.78;;;18.90;96.90;;;;;;4960071;28;20051;-77
2023/09/12 07:21:07;;;;;;;84.95;53.00;;;19.00;96.80;;;;;;4944098;28;20062;-75
2023/09/12 07:23:33;;;;;;;92.90;54.30;;;19.10;96.50;;;;;;4960593;28;20054;-76
2023/09/12 07:25:59;;;;;;;83.47;50.33;;;19.20;96.40;;;;;;4958784;28;20075;-77
2023/09/12 07:28:28;;;;;;;82.10;51.33;;;19.40;96.50;;;;;;4941965;28;20043;-77
2023/09/12 07:30:54;;;;;;;83.10;50.88;;;19.60;96.80;;;;;;4958094;28;20055;-76
2023/09/12 07:33:21;;;;;;;81.70;48.42;;;19.70;96.80;;;;;;4945545;28;20066;-75
2023/09/12 07:35:47;;;;;;;76.18;49.15;;;19.90;96.70;;;;;;4959028;28;20045;-75
2023/09/12 07:38:17;;;;;;;80.95;48.53;;;19.90;96.40;;;;;;4946343;28;20056;-77
2023/09/12 07:40:42;;;;;;;74.90;47.65;;;20.00;96.20;;;;;;4962317;28;20122;-76
2023/09/12 07:43:09;;;;;;;72.38;45.65;;;20.20;96.10;;;;;;4944168;28;20142;-76
2023/09/12 07:45:37;;;;;;;75.28;47.53;;;20.30;95.90;;;;;;4938116;28;20055;-76
2023/09/12 07:48:12;;;;;;;70.72;46.33;;;20.40;96.00;;;;;;4959113;28;20577;-78
2023/09/12 07:50:38;;;;;;;71.78;47.38;;;20.40;95.70;;;;;;4941583;28;20055;-77
2023/09/12 07:53:07;;;;;;;62.95;43.63;;;20.40;95.40;;;;;;4961677;28;20043;-77
2023/09/12 07:55:45;;;;;;;68.20;45.10;;;20.40;95.30;;;;;;4930272;28;20100;-78
2023/09/12 07:58:14;;;;;;;62.63;45.75;;;20.40;95.20;;;;;;4959607;28;20046;-77
2023/09/12 08:00:40;;;;;;;67.32;44.33;;;20.40;95.20;;;;;;4964161;28;20055;-75
2023/09/12 08:03:06;;;;;;;69.82;45.03;;;20.40;95.30;;;;;;4966593;28;20456;-76
2023/09/12 08:05:31;;;;;;;65.00;42.42;;;20.40;95.10;;;;;;4963139;28;20057;-76
2023/09/12 08:07:57;;;;;;;61.03;44.00;;;20.40;95.20;;;;;;4944536;28;20046;-77
2023/09/12 08:10:23;;;;;;;55.63;38.00;;;20.40;95.10;;;;;;4992373;28;20047;-78
2023/09/12 08:12:48;;;;;;;55.65;36.90;;;20.40;95.10;;;;;;4959830;28;20050;-76
2023/09/12 08:15:14;;;;;;;51.22;35.50;;;20.50;94.70;;;;;;4928012;28;20093;-75
2023/09/12 08:17:40;;;;;;;49.33;34.95;;;20.50;94.40;;;;;;4943502;28;20134;-77
2023/09/12 08:20:09;;;;;;;43.42;32.55;;;20.40;94.10;;;;;;4959752;28;20145;-77
2023/09/12 08:22:36;;;;;;;46.03;34.22;;;20.50;94.20;;;;;;4959864;28;20129;-76
2023/09/12 08:25:02;;;;;;;47.15;32.65;;;20.50;93.90;;;;;;4944223;28;20047;-77
2023/09/12 08:27:28;;;;;;;42.72;31.25;;;20.50;93.80;;;;;;4960225;28;20078;-77
2023/09/12 08:29:54;;;;;;;47.20;30.70;;;20.60;93.70;;;;;;4959841;28;20427;-77
2023/09/12 08:32:20;;;;;;;43.15;29.88;;;20.60;93.20;;;;;;4959826;28;20070;-76
2023/09/12 08:34:46;;;;;;;46.22;30.58;;;20.70;92.90;;;;;;4943874;28;20104;-78
2023/09/12 08:37:11;;;;;;;40.25;27.92;;;20.60;92.60;;;;;;4943966;28;20093;-78
2023/09/12 08:39:45;;;;;;;41.83;29.67;;;20.70;92.40;;;;;;4959616;28;20170;-77
2023/09/12 08:42:16;;;;;;;44.65;29.45;;;20.80;92.10;;;;;;4943602;28;20046;-76
2023/09/12 08:44:45;;;;;;;41.53;30.50;;;20.70;92.00;;;;;;4959642;28;20031;-79
2023/09/12 08:47:12;;;;;;;44.53;29.77;;;20.70;92.00;;;;;;4959875;28;20042;-79
2023/09/12 08:49:38;;;;;;;38.28;28.60;;;20.80;92.10;;;;;;4943794;28;20042;-77
2023/09/12 08:52:07;;;;;;;43.40;29.88;;;20.90;92.00;;;;;;4959863;28;20039;-78
2023/09/12 08:54:33;;;;;;;48.70;29.17;;;20.90;91.10;;;;;;4959767;28;20043;-77
2023/09/12 08:57:05;;;;;;;36.20;27.30;;;21.00;91.60;;;;;;4943530;28;20050;-78
2023/09/12 08:59:34;;;;;;;36.88;26.23;;;21.10;91.50;;;;;;4959146;28;20057;-77
2023/09/12 09:02:01;;;;;;;36.10;26.63;;;21.20;91.00;;;;;;4958783;28;20507;-76
2023/09/12 09:04:32;;;;;;;32.53;25.35;;;21.20;90.40;;;;;;4959147;28;20047;-78
2023/09/12 09:07:00;;;;;;;32.83;24.20;;;21.20;90.30;;;;;;4943409;28;20225;-76
2023/09/12 09:09:28;;;;;;;37.03;26.10;;;21.40;90.10;;;;;;4943234;28;20034;-77
2023/09/12 09:11:54;;;;;;;34.00;24.48;;;21.40;90.10;;;;;;4943439;28;20410;-80
2023/09/12 09:14:19;;;;;;;34.45;23.73;;;21.50;89.80;;;;;;4958945;28;20125;-79
2023/09/12 09:16:45;;;;;;;33.78;23.30;;;21.50;89.30;;;;;;4940041;29;20138;-80
2023/09/12 09:19:11;;;;;;;33.40;21.88;;;21.60;88.90;;;;;;4956657;29;20106;-78
2023/09/12 09:21:40;;;;;;;29.60;20.95;;;21.80;88.10;;;;;;4940449;29;20058;-79
2023/09/12 09:24:10;;;;;;;27.45;20.83;;;22.00;87.70;;;;;;4956279;28;20050;-81
2023/09/12 09:26:43;;;;;;;29.75;21.85;;;22.00;86.90;;;;;;4956347;29;20047;-82
2023/09/12 09:29:10;;;;;;;35.45;25.73;;;22.00;86.70;;;;;;4956177;29;20050;-82
2023/09/12 09:31:41;;;;;;;31.58;23.13;;;22.10;86.30;;;;;;4956016;29;20098;-80
2023/09/12 09:34:21;;;;;;;26.85;19.63;;;22.30;86.40;;;;;;4955915;28;20050;-79
2023/09/12 09:36:52;;;;;;;27.15;17.75;;;22.50;86.20;;;;;;4956361;29;20369;-79
2023/09/12 09:39:19;;;;;;;27.27;18.58;;;22.70;84.30;;;;;;4924918;29;20212;-80
2023/09/12 09:41:49;;;;;;;22.30;17.45;;;22.90;84.60;;;;;;4956254;29;20074;-82
2023/09/12 09:44:16;;;;;;;24.05;16.27;;;23.00;82.70;;;;;;4955881;28;20455;-81
2023/09/12 09:46:45;;;;;;;25.05;17.13;;;23.00;82.80;;;;;;4940205;29;20097;-82
2023/09/12 09:49:15;;;;;;;23.65;17.50;;;23.00;82.90;;;;;;4955890;29;20043;-82
2023/09/12 09:51:44;;;;;;;23.95;17.40;;;23.00;82.70;;;;;;4955356;29;20130;-80
2023/09/12 09:54:12;;;;;;;23.13;18.08;;;23.00;82.80;;;;;;4955697;28;20074;-83
2023/09/12 09:56:49;;;;;;;21.48;17.02;;;23.00;82.20;;;;;;4939760;29;20474;-82
2023/09/12 09:59:21;;;;;;;23.15;18.73;;;23.00;82.50;;;;;;4955527;28;20608;-80
2023/09/12 10:01:49;;;;;;;26.02;19.73;;;23.10;82.60;;;;;;4955310;29;20047;-80
2023/09/12 10:04:15;;;;;;;25.88;19.85;;;23.00;82.30;;;;;;4939532;29;20046;-81
2023/09/12 10:06:44;;;;;;;24.80;18.30;;;23.00;81.70;;;;;;4939594;29;20058;-78
2023/09/12 10:09:11;;;;;;;23.77;17.27;;;23.00;82.10;;;;;;4955379;29;20459;-79
2023/09/12 10:11:39;;;;;;;23.67;17.42;;;23.00;81.70;;;;;;4955255;28;20047;-77
2023/09/12 10:14:07;;;;;;;24.48;16.88;;;23.00;81.90;;;;;;4954065;28;20514;-78
2023/09/12 10:16:34;;;;;;;23.60;17.33;;;23.00;82.20;;;;;;4957202;28;20114;-78
2023/09/12 10:19:24;;;;;;;28.05;19.88;;;23.00;82.20;;;;;;4958258;28;20070;-78
2023/09/12 10:22:22;;;;;;;25.27;18.42;;;23.10;82.30;;;;;;4958207;28;20046;-79
2023/09/12 10:24:50;;;;;;;22.35;17.88;;;23.10;82.40;;;;;;4958292;28;20436;-78
2023/09/12 10:27:18;;;;;;;25.90;17.42;;;23.00;82.40;;;;;;4957992;28;20456;-78
2023/09/12 10:29:47;;;;;;;24.67;19.10;;;23.00;82.40;;;;;;4958010;28;20125;-78
2023/09/12 10:32:14;;;;;;;22.65;17.20;;;23.00;81.50;;;;;;4957874;28;20039;-78
2023/09/12 10:34:44;;;;;;;20.80;15.20;;;23.00;82.00;;;;;;4958277;28;20391;-76
2023/09/12 10:37:14;;;;;;;22.25;17.67;;;23.00;81.80;;;;;;4958018;28;20088;-77
2023/09/12 10:39:43;;;;;;;17.92;16.02;;;23.00;81.70;;;;;;4957849;28;20035;-78
2023/09/12 10:42:09;;;;;;;17.27;14.80;;;23.10;82.30;;;;;;4942001;28;20042;-78
2023/09/12 10:44:35;;;;;;;23.33;16.17;;;23.20;81.90;;;;;;4941864;28;20046;-78
2023/09/12 10:47:03;;;;;;;19.35;15.38;;;23.10;81.50;;;;;;4957844;28;20051;-78
2023/09/12 10:49:30;;;;;;;19.52;15.32;;;23.20;81.50;;;;;;4957866;28;20047;-78
2023/09/12 10:51:57;;;;;;;19.95;14.55;;;23.20;81.30;;;;;;4926091;28;20495;-77
2023/09/12 10:54:25;;;;;;;19.35;16.98;;;23.40;80.60;;;;;;4957605;28;20049;-78
2023/09/12 10:57:23;;;;;;;16.83;14.88;;;23.40;80.30;;;;;;4958003;28;20134;-77
2023/09/12 11:00:04;;;;;;;19.10;14.85;;;23.50;79.90;;;;;;4890537;28;20058;-78
2023/09/12 11:02:32;;;;;;;19.70;14.95;;;23.50;80.10;;;;;;4957617;28;20045;-78
2023/09/12 11:04:59;;;;;;;21.73;15.50;;;23.70;80.30;;;;;;4957893;28;20133;-78
2023/09/12 11:07:35;;;;;;;17.88;13.80;;;23.80;80.20;;;;;;4941770;28;20053;-78
2023/09/12 11:10:14;;;;;;;18.40;13.65;;;23.90;78.80;;;;;;4957674;28;20046;-78
2023/09/12 11:12:41;;;;;;;19.90;14.25;;;23.90;78.20;;;;;;4957103;28;20101;-78
2023/09/12 11:15:08;;;;;;;20.00;13.30;;;23.90;78.30;;;;;;4941255;28;20046;-78
2023/09/12 11:18:07;;;;;;;20.60;13.93;;;23.90;78.30;;;;;;4925386;28;20063;-78
2023/09/12 11:20:49;;;;;;;13.90;12.40;;;23.80;78.60;;;;;;4952005;28;20133;-79
2023/09/12 11:23:15;;;;;;;17.98;13.95;;;23.80;78.60;;;;;;4941415;28;20077;-77
2023/09/12 11:25:40;;;;;;;16.27;12.57;;;23.70;78.80;;;;;;4959412;28;20078;-76
2023/09/12 11:28:06;;;;;;;17.95;13.18;;;23.70;78.80;;;;;;4944935;28;20131;-76
2023/09/12 11:30:33;;;;;;;18.60;13.10;;;23.60;79.20;;;;;;4960966;28;20088;-75
2023/09/12 11:33:03;;;;;;;15.05;13.50;;;23.60;80.00;;;;;;4944801;28;20039;-77
2023/09/12 11:35:29;;;;;;;19.65;14.20;;;23.50;80.10;;;;;;4960723;28;20050;-77
2023/09/12 11:37:59;;;;;;;16.83;13.60;;;23.40;80.50;;;;;;4928932;28;20407;-77
2023/09/12 11:40:34;;;;;;;17.63;13.70;;;23.40;81.00;;;;;;4960830;28;20129;-78
2023/09/12 11:43:00;;;;;;;15.85;14.02;;;23.30;81.40;;;;;;4945153;28;20364;-77
2023/09/12 11:45:27;;;;;;;14.93;13.27;;;23.30;81.60;;;;;;4944979;28;20050;-77
2023/09/12 11:47:53;;;;;;;15.70;13.75;;;23.20;81.50;;;;;;4944689;28;20046;-77
2023/09/12 11:50:39;;;;;;;16.90;12.85;;;23.20;81.80;;;;;;4960461;28;20101;-76
2023/09/12 11:53:10;;;;;;;15.02;12.90;;;23.10;82.10;;;;;;4944707;28;20126;-76
2023/09/12 11:55:51;;;;;;;14.73;11.73;;;23.10;81.80;;;;;;4960389;28;20506;-75
2023/09/12 11:58:17;;;;;;;15.02;11.55;;;23.10;81.20;;;;;;4960437;28;20054;-75
2023/09/12 12:00:51;;;;;;;13.77;11.93;;;23.00;81.20;;;;;;4960503;28;20053;-76
2023/09/12 12:03:19;;;;;;;14.50;11.63;;;22.90;81.50;;;;;;4960252;28;20561;-75
2023/09/12 12:05:45;;;;;;;15.13;11.35;;;22.90;81.80;;;;;;4960412;28;20062;-76
2023/09/12 12:08:11;;;;;;;12.73;11.10;;;22.90;81.60;;;;;;4944300;28;20039;-76
2023/09/12 12:10:41;;;;;;;14.63;11.75;;;22.90;81.90;;;;;;4960088;28;20053;-77
2023/09/12 12:13:20;;;;;;;11.98;10.82;;;22.80;81.80;;;;;;4960065;28;20074;-76
2023/09/12 12:15:46;;;;;;;13.52;10.27;;;22.80;82.20;;;;;;4960129;28;20194;-76
2023/09/12 12:18:12;;;;;;;11.65;9.32;;;22.80;82.30;;;;;;4959865;28;20137;-76
2023/09/12 12:20:38;;;;;;;11.02;9.05;;;22.90;81.90;;;;;;4928299;28;20053;-76
2023/09/12 12:23:04;;;;;;;10.38;8.50;;;22.90;81.30;;;;;;4960123;28;20050;-76
2023/09/12 12:25:40;;;;;;;11.10;9.55;;;22.90;80.50;;;;;;4959831;28;20053;-76
2023/09/12 12:28:05;;;;;;;12.60;9.35;;;22.90;80.60;;;;;;4944196;28;20442;-76